Time;durP1;ratioP1;P1;durP2;ratioP2;P2;SDS_P1;SDS_P2;PMS_P1;PMS_P2;Temp;Humidity;BMP_temperature;BMP_pressure;BME280_temperature;BME280_humidity;BME280_pressure;Samples;Min_cycle;Max_cycle;Signal;HPM_P1;HPM_P2
2023/08/31 00:01:11;;;;;;;3.20;1.10;;;;;;;11.86;100.00;100995.75;4917436;29;20215;-76
2023/08/31 00:03:36;;;;;;;4.73;1.20;;;;;;;12.90;100.00;101124.34;4923831;29;20185;-76
2023/08/31 00:06:03;;;;;;;3.17;0.80;;;;;;;11.84;100.00;100987.88;4922929;29;20896;-76
2023/08/31 00:08:29;;;;;;;3.63;1.10;;;;;;;11.72;100.00;101014.50;4922436;29;20191;-76
2023/08/31 00:11:00;;;;;;;4.90;1.20;;;;;;;11.94;100.00;101050.13;4922244;29;20452;-75
2023/08/31 00:13:26;;;;;;;4.90;1.73;;;;;;;11.44;100.00;100976.16;4927810;29;20570;-76
2023/08/31 00:15:56;;;;;;;5.80;1.50;;;;;;;12.20;100.00;101092.41;4922667;29;20423;-75
2023/08/31 00:18:22;;;;;;;4.03;1.13;;;;;;;12.19;100.00;101084.53;4921970;29;20574;-76
2023/08/31 00:20:47;;;;;;;3.47;1.10;;;;;;;11.65;100.00;101016.31;4922552;29;20543;-76
2023/08/31 00:23:13;;;;;;;4.47;1.10;;;;;;;12.64;100.00;101117.09;4921947;29;20695;-76
2023/08/31 00:25:38;;;;;;;3.30;1.10;;;;;;;12.34;100.00;101068.22;4921687;29;20179;-75
2023/08/31 00:28:04;;;;;;;3.17;1.00;;;;;;;12.15;100.00;101016.06;4919877;29;20192;-76
2023/08/31 00:30:31;;;;;;;6.33;1.10;;;;;;;12.07;100.00;101037.78;4921161;29;20204;-76
2023/08/31 00:32:59;;;;;;;3.37;0.90;;;;;;;11.72;100.00;101009.13;4921735;29;20435;-76
2023/08/31 00:35:27;;;;;;;3.77;1.20;;;;;;;11.99;100.00;101085.31;4922524;29;20435;-76
2023/08/31 00:37:58;;;;;;;4.07;1.00;;;;;;;11.88;100.00;101091.28;4929878;29;21469;-76
2023/08/31 00:40:24;;;;;;;7.93;1.50;;;;;;;11.55;100.00;101010.50;4922614;29;20439;-76
2023/08/31 00:42:50;;;;;;;3.97;0.90;;;;;;;11.55;100.00;100997.09;4923236;29;20437;-76
2023/08/31 00:45:15;;;;;;;3.30;1.10;;;;;;;11.78;100.00;101058.56;4921198;29;20487;-76
2023/08/31 00:47:41;;;;;;;4.13;1.37;;;;;;;11.52;100.00;101000.16;4925606;29;20204;-76
2023/08/31 00:50:07;;;;;;;3.40;1.00;;;;;;;12.16;100.00;101127.97;4925902;29;20765;-77
2023/08/31 00:52:34;;;;;;;3.50;1.00;;;;;;;11.91;100.00;101101.63;4925690;29;20436;-76
2023/08/31 00:55:02;;;;;;;3.30;1.00;;;;;;;12.02;100.00;101119.03;4927310;29;20436;-76
2023/08/31 00:57:28;;;;;;;3.70;1.00;;;;;;;11.49;100.00;101000.56;4925773;29;20463;-76
2023/08/31 00:59:55;;;;;;;5.30;1.27;;;;;;;11.65;100.00;101079.97;4926422;29;20481;-77
2023/08/31 01:02:51;;;;;;;4.10;1.73;;;;;;;11.91;100.00;101114.22;4925997;29;20657;-76
2023/08/31 01:05:23;;;;;;;2.90;0.90;;;;;;;12.11;100.00;101127.75;4929007;28;20436;-77
2023/08/31 01:08:02;;;;;;;2.13;0.73;;;;;;;11.35;100.00;101042.66;4925784;29;20444;-76
2023/08/31 01:10:48;;;;;;;2.80;1.20;;;;;;;12.02;100.00;101142.41;4924183;29;20447;-77
2023/08/31 01:13:19;;;;;;;4.23;1.00;;;;;;;11.91;100.00;101151.88;4926213;29;20924;-77
2023/08/31 01:15:48;;;;;;;4.43;1.17;;;;;;;11.27;100.00;101034.75;4923639;29;20439;-77
2023/08/31 01:18:17;;;;;;;2.73;0.90;;;;;;;11.54;100.00;101092.97;4925982;29;20507;-76
2023/08/31 01:20:51;;;;;;;3.03;1.00;;;;;;;11.26;100.00;101042.00;4931500;29;20452;-76
2023/08/31 01:23:19;;;;;;;3.40;1.00;;;;;;;11.50;100.00;101061.31;4931698;29;20444;-77
2023/08/31 01:25:48;;;;;;;5.67;1.20;;;;;;;11.67;100.00;101110.19;4922632;29;20542;-76
2023/08/31 01:28:13;;;;;;;2.63;0.90;;;;;;;11.12;100.00;101028.69;4925452;29;20433;-76
2023/08/31 01:30:39;;;;;;;2.40;1.00;;;;;;;11.19;100.00;101025.00;4924685;29;20456;-76
2023/08/31 01:33:04;;;;;;;4.33;1.33;;;;;;;10.75;100.00;100983.25;4925611;29;20191;-76
2023/08/31 01:35:43;;;;;;;3.00;1.17;;;;;;;11.03;100.00;101017.28;4924046;29;20191;-76
2023/08/31 01:38:10;;;;;;;3.30;0.97;;;;;;;10.93;100.00;101009.56;4928738;29;20204;-76
2023/08/31 01:40:39;;;;;;;4.40;1.20;;;;;;;11.58;100.00;101089.88;4925053;29;20490;-76
2023/08/31 01:43:07;;;;;;;3.27;1.00;;;;;;;10.71;100.00;100944.44;4924410;29;20434;-76
2023/08/31 01:45:35;;;;;;;2.50;1.37;;;;;;;10.76;100.00;100954.56;4931752;29;20428;-76
2023/08/31 01:48:01;;;;;;;6.07;1.40;;;;;;;11.02;100.00;100986.94;4925385;29;20441;-76
2023/08/31 01:50:26;;;;;;;3.63;0.90;;;;;;;11.44;100.00;101065.63;4922881;29;20455;-77
2023/08/31 01:52:55;;;;;;;2.47;0.90;;;;;;;11.90;100.00;101134.91;4924124;29;20519;-76
2023/08/31 01:55:21;;;;;;;3.90;1.10;;;;;;;11.26;100.00;101042.00;4922995;29;20653;-77
2023/08/31 01:57:47;;;;;;;3.37;1.00;;;;;;;11.05;100.00;101018.75;4924490;29;20483;-76
2023/08/31 02:00:14;;;;;;;6.40;1.30;;;;;;;11.27;100.00;101032.06;4923769;29;20464;-77
2023/08/31 02:02:40;;;;;;;3.60;1.20;;;;;;;11.94;100.00;101129.97;4928237;29;20636;-77
2023/08/31 02:05:06;;;;;;;3.23;1.10;;;;;;;11.92;100.00;101119.41;4924392;29;20435;-76
2023/08/31 02:07:32;;;;;;;4.47;1.10;;;;;;;10.85;100.00;100962.25;4923801;29;20184;-77
2023/08/31 02:09:57;;;;;;;5.23;1.10;;;;;;;11.35;100.00;101080.25;4923475;29;20454;-77
2023/08/31 02:12:22;;;;;;;5.30;1.50;;;;;;;11.73;100.00;101110.19;4923022;29;20192;-77
2023/08/31 02:14:48;;;;;;;3.30;1.20;;;;;;;11.63;100.00;101100.84;4921484;29;20183;-76
2023/08/31 02:17:14;;;;;;;4.37;1.50;;;;;;;11.37;100.00;101015.59;4924179;29;20219;-76
2023/08/31 02:19:39;;;;;;;4.90;1.00;;;;;;;11.03;100.00;100963.59;4924897;29;20187;-77
2023/08/31 02:22:04;;;;;;;3.30;1.50;;;;;;;11.45;100.00;101071.81;4922352;29;20286;-76
2023/08/31 02:24:30;;;;;;;4.73;1.40;;;;;;;11.83;100.00;101104.47;4923782;29;20191;-76
2023/08/31 02:26:56;;;;;;;6.03;1.43;;;;;;;11.61;100.00;101073.38;4924001;29;20315;-76
2023/08/31 02:29:21;;;;;;;3.67;1.20;;;;;;;12.12;100.00;101108.75;4921927;29;20192;-75
2023/08/31 02:31:47;;;;;;;2.57;0.90;;;;;;;11.35;100.00;100972.00;4923927;29;20449;-76
2023/08/31 02:34:12;;;;;;;2.70;1.00;;;;;;;12.17;100.00;101111.63;4923835;29;20283;-76
2023/08/31 02:36:38;;;;;;;4.40;1.20;;;;;;;11.04;100.00;100893.59;4921813;29;20658;-76
2023/08/31 02:39:06;;;;;;;3.00;1.03;;;;;;;12.35;100.00;101119.16;4924446;29;20228;-76
2023/08/31 02:41:31;;;;;;;5.33;1.40;;;;;;;12.33;100.00;101099.69;4924030;29;20246;-76
2023/08/31 02:43:57;;;;;;;3.90;1.30;;;;;;;11.90;100.00;101045.38;4922119;29;20452;-76
2023/08/31 02:46:23;;;;;;;2.20;0.90;;;;;;;12.02;100.00;101067.94;4925791;29;20232;-76
2023/08/31 02:48:48;;;;;;;2.17;0.90;;;;;;;11.79;100.00;101022.56;4922934;29;20240;-76
2023/08/31 02:51:14;;;;;;;3.33;1.13;;;;;;;11.25;100.00;100999.22;4921656;29;20215;-76
2023/08/31 02:53:39;;;;;;;2.93;0.80;;;;;;;10.87;100.00;100959.38;4920236;29;20245;-76
2023/08/31 02:56:05;;;;;;;3.20;1.20;;;;;;;11.16;100.00;101008.47;4922681;29;20184;-77
2023/08/31 02:58:31;;;;;;;2.80;0.87;;;;;;;11.68;100.00;101111.81;4922162;29;20283;-76
2023/08/31 03:01:10;;;;;;;2.80;1.00;;;;;;;11.44;100.00;101079.06;4922314;29;20216;-77
2023/08/31 03:03:37;;;;;;;4.90;1.33;;;;;;;10.74;100.00;100962.81;4922331;29;20428;-76
2023/08/31 03:06:02;;;;;;;2.87;1.00;;;;;;;11.30;100.00;101045.09;4921295;29;20710;-76
2023/08/31 03:08:27;;;;;;;3.43;0.90;;;;;;;11.24;100.00;101044.03;4923661;29;20940;-76
2023/08/31 03:10:53;;;;;;;3.53;1.00;;;;;;;10.90;100.00;101003.78;4923344;29;21206;-77
2023/08/31 03:13:18;;;;;;;4.07;1.10;;;;;;;11.00;100.00;100990.84;4927360;29;20641;-77
2023/08/31 03:15:44;;;;;;;6.67;1.10;;;;;;;10.95;100.00;100999.47;4923504;29;20196;-77
2023/08/31 03:18:09;;;;;;;3.17;1.00;;;;;;;11.19;100.00;101040.28;4918863;29;20220;-76
2023/08/31 03:20:34;;;;;;;3.30;1.20;;;;;;;10.80;100.00;100979.97;4920278;29;20207;-77
2023/08/31 03:23:00;;;;;;;2.87;0.97;;;;;;;11.58;100.00;101111.38;4921423;29;20729;-76
2023/08/31 03:25:27;;;;;;;7.27;1.33;;;;;;;10.94;100.00;101010.41;4920690;29;20188;-77
2023/08/31 03:27:52;;;;;;;3.30;1.00;;;;;;;11.53;100.00;101106.59;4919384;29;20192;-77
2023/08/31 03:30:18;;;;;;;2.43;0.97;;;;;;;10.88;100.00;101012.03;4921523;29;20463;-77
2023/08/31 03:32:43;;;;;;;3.07;0.90;;;;;;;11.05;100.00;101061.69;4921763;29;20707;-76
2023/08/31 03:35:09;;;;;;;4.70;1.00;;;;;;;10.58;100.00;100980.03;4921703;29;20192;-76
2023/08/31 03:37:35;;;;;;;3.17;1.10;;;;;;;9.98;100.00;100866.13;4926842;29;20870;-77
2023/08/31 03:40:00;;;;;;;3.73;1.07;;;;;;;10.05;100.00;100896.47;4921562;29;20215;-77
2023/08/31 03:42:26;;;;;;;3.27;1.03;;;;;;;10.59;100.00;100973.66;4918727;29;20192;-76
2023/08/31 03:44:51;;;;;;;6.13;1.10;;;;;;;10.38;100.00;100950.38;4920254;29;20216;-76
2023/08/31 03:47:17;;;;;;;3.47;1.10;;;;;;;10.33;100.00;100957.38;4919571;29;20282;-76
2023/08/31 03:49:42;;;;;;;3.90;1.13;;;;;;;9.58;100.00;100851.56;4918560;29;20188;-76
2023/08/31 03:52:07;;;;;;;4.00;0.90;;;;;;;9.99;100.00;100918.69;4917180;29;20660;-76
2023/08/31 03:54:34;;;;;;;9.33;1.80;;;;;;;9.80;100.00;100873.81;4921741;29;20215;-76
2023/08/31 03:56:59;;;;;;;4.73;1.10;;;;;;;10.26;100.00;100981.38;4918776;29;20439;-76
2023/08/31 03:59:25;;;;;;;5.93;2.20;;;;;;;8.95;100.00;100749.66;4922952;29;20203;-76
2023/08/31 04:01:50;;;;;;;3.03;1.30;;;;;;;9.40;100.00;100841.28;4921445;29;20251;-77
2023/08/31 04:04:16;;;;;;;3.00;0.97;;;;;;;8.78;100.00;100706.28;4921588;29;20190;-76
2023/08/31 04:06:41;;;;;;;3.33;1.20;;;;;;;9.26;100.00;100843.84;4928067;29;20712;-76
2023/08/31 04:09:07;;;;;;;2.67;1.00;;;;;;;9.66;100.00;100881.72;4920174;29;20591;-77
2023/08/31 04:11:33;;;;;;;4.10;1.10;;;;;;;8.82;100.00;100689.66;4927206;29;20690;-77
2023/08/31 04:13:58;;;;;;;3.90;1.63;;;;;;;9.20;100.00;100798.25;4922394;29;20455;-76
2023/08/31 04:16:24;;;;;;;3.30;1.50;;;;;;;9.87;100.00;100880.06;4920595;29;20199;-76
2023/08/31 04:18:51;;;;;;;4.07;1.90;;;;;;;10.12;100.00;100942.09;4919969;29;20217;-76
2023/08/31 04:21:18;;;;;;;3.53;1.60;;;;;;;10.60;100.00;101033.50;4927072;29;20550;-76
2023/08/31 04:23:44;;;;;;;3.30;1.50;;;;;;;8.46;100.00;100700.38;4934734;29;20427;-77
2023/08/31 04:26:13;;;;;;;4.63;1.97;;;;;;;9.35;100.00;100875.84;4924176;29;20516;-77
2023/08/31 04:28:42;;;;;;;5.73;2.30;;;;;;;8.82;100.00;100810.03;4926934;29;20176;-77
2023/08/31 04:31:08;;;;;;;4.70;1.70;;;;;;;9.15;100.00;100886.34;4931802;29;20444;-77
2023/08/31 04:33:34;;;;;;;5.60;2.87;;;;;;;8.49;100.00;100736.59;4922459;29;20425;-76
2023/08/31 04:35:59;;;;;;;7.20;2.33;;;;;;;10.05;100.00;101024.28;4924990;29;20214;-76
2023/08/31 04:38:25;;;;;;;5.33;2.00;;;;;;;9.81;100.00;100967.38;4922848;29;20949;-76
2023/08/31 04:40:50;;;;;;;6.57;2.10;;;;;;;9.57;100.00;100943.63;4926438;29;20756;-77
2023/08/31 04:43:16;;;;;;;6.80;1.70;;;;;;;8.70;100.00;100803.47;4924971;29;20712;-77
2023/08/31 04:45:42;;;;;;;4.37;2.10;;;;;;;9.32;100.00;100919.06;4924123;29;20188;-77
2023/08/31 04:48:08;;;;;;;6.40;2.10;;;;;;;8.74;100.00;100854.75;4924440;29;20458;-77
2023/08/31 04:50:33;;;;;;;3.40;1.70;;;;;;;9.79;100.00;101020.31;4926305;29;20204;-77
2023/08/31 04:52:58;;;;;;;5.43;2.13;;;;;;;8.80;100.00;100835.28;4926338;29;20188;-77
2023/08/31 04:55:25;;;;;;;7.07;2.47;;;;;;;8.33;100.00;100748.28;4924538;29;20212;-77
2023/08/31 04:57:51;;;;;;;6.80;2.03;;;;;;;9.63;100.00;100964.28;4925026;29;20298;-77
2023/08/31 05:00:16;;;;;;;4.73;1.90;;;;;;;10.18;100.00;101037.81;4922713;29;21083;-77
2023/08/31 05:02:43;;;;;;;4.27;1.90;;;;;;;8.96;100.00;100882.38;4920524;29;20184;-76
2023/08/31 05:05:08;;;;;;;6.10;1.97;;;;;;;9.09;100.00;100900.47;4925076;29;20184;-77
2023/08/31 05:07:34;;;;;;;5.90;1.90;;;;;;;10.13;100.00;101041.09;4922202;29;20966;-77
2023/08/31 05:09:59;;;;;;;4.70;1.83;;;;;;;10.70;100.00;101143.97;4927176;29;20204;-77
2023/08/31 05:12:25;;;;;;;3.27;1.60;;;;;;;8.92;100.00;100865.06;4922984;29;20192;-77
2023/08/31 05:14:50;;;;;;;6.30;2.13;;;;;;;9.27;100.00;100933.00;4925669;29;20534;-77
2023/08/31 05:17:16;;;;;;;6.57;2.40;;;;;;;10.22;100.00;101065.09;4923077;29;20207;-78
2023/08/31 05:19:41;;;;;;;5.70;1.70;;;;;;;11.13;100.00;101178.81;4924258;29;20267;-78
2023/08/31 05:22:07;;;;;;;5.83;1.90;;;;;;;10.39;100.00;101069.22;4930732;29;20641;-78
2023/08/31 05:24:32;;;;;;;5.13;2.00;;;;;;;9.67;100.00;101008.44;4924989;29;20543;-77
2023/08/31 05:26:58;;;;;;;4.20;1.73;;;;;;;9.87;100.00;101009.47;4925168;29;20189;-77
2023/08/31 05:29:23;;;;;;;4.80;2.10;;;;;;;10.30;100.00;101075.69;4923436;29;20275;-77
2023/08/31 05:31:51;;;;;;;3.43;2.23;;;;;;;8.60;100.00;100822.50;4923570;29;20700;-77
2023/08/31 05:34:17;;;;;;;6.80;2.17;;;;;;;9.28;100.00;100937.31;4923404;29;20187;-77
2023/08/31 05:36:43;;;;;;;4.13;2.13;;;;;;;9.22;100.00;100944.25;4930554;29;20433;-76
2023/08/31 05:39:09;;;;;;;5.53;2.40;;;;;;;9.74;100.00;101018.19;4922849;29;20463;-76
2023/08/31 05:41:35;;;;;;;4.10;2.13;;;;;;;9.71;100.00;100994.47;4922882;29;20740;-77
2023/08/31 05:44:00;;;;;;;4.93;2.47;;;;;;;10.02;100.00;101032.72;4921810;29;20487;-77
2023/08/31 05:46:27;;;;;;;4.33;1.90;;;;;;;10.63;100.00;101092.13;4920742;29;20207;-77
2023/08/31 05:48:52;;;;;;;5.40;2.40;;;;;;;9.54;100.00;100950.19;4924122;29;20349;-77
2023/08/31 05:51:18;;;;;;;5.80;2.40;;;;;;;9.14;100.00;100873.94;4924241;29;20980;-77
2023/08/31 05:53:43;;;;;;;4.03;2.13;;;;;;;9.83;100.00;101008.19;4923209;29;20192;-77
2023/08/31 05:56:09;;;;;;;5.00;2.40;;;;;;;9.74;100.00;101006.66;4923588;29;20651;-77
2023/08/31 05:58:36;;;;;;;5.37;2.77;;;;;;;9.55;100.00;100975.13;4921653;29;20251;-77
2023/08/31 06:01:03;;;;;;;4.40;3.07;;;;;;;9.13;100.00;100893.72;4923212;29;20276;-77
2023/08/31 06:03:29;;;;;;;4.07;2.40;;;;;;;9.50;100.00;100940.88;4923603;29;20428;-77
2023/08/31 06:05:55;;;;;;;5.47;2.83;;;;;;;10.15;100.00;101073.91;4923841;29;20427;-77
2023/08/31 06:08:21;;;;;;;6.20;2.40;;;;;;;9.32;100.00;100894.97;4920690;29;20204;-77
2023/08/31 06:10:46;;;;;;;5.00;2.37;;;;;;;9.98;100.00;101023.38;4929434;29;20460;-77
2023/08/31 06:13:12;;;;;;;5.13;1.83;;;;;;;10.74;100.00;101110.38;4921075;29;20267;-77
2023/08/31 06:15:37;;;;;;;4.00;2.17;;;;;;;9.73;100.00;100928.16;4923572;29;20187;-77
2023/08/31 06:18:04;;;;;;;3.80;2.23;;;;;;;9.98;100.00;100908.16;4920903;29;20238;-77
2023/08/31 06:20:29;;;;;;;4.80;2.20;;;;;;;10.30;100.00;101022.06;4920741;29;20355;-77
2023/08/31 06:22:54;;;;;;;6.73;2.20;;;;;;;10.83;100.00;101097.66;4919637;29;20527;-77
2023/08/31 06:25:22;;;;;;;3.60;1.90;;;;;;;11.21;100.00;101119.59;4924359;29;20290;-77
2023/08/31 06:27:48;;;;;;;6.47;2.17;;;;;;;10.70;100.00;101050.06;4923965;29;20185;-77
2023/08/31 06:30:16;;;;;;;4.50;1.97;;;;;;;10.16;100.00;101005.84;4922807;29;20455;-76
2023/08/31 06:32:46;;;;;;;5.77;2.73;;;;;;;10.53;100.00;101036.13;4923709;29;20183;-77
2023/08/31 06:35:12;;;;;;;6.53;2.17;;;;;;;11.65;100.00;101204.41;4922207;29;20872;-77
2023/08/31 06:37:39;;;;;;;4.67;1.73;;;;;;;10.30;100.00;100984.53;4923944;29;20949;-77
2023/08/31 06:40:08;;;;;;;4.67;2.27;;;;;;;10.37;100.00;101001.53;4920818;29;20824;-78
2023/08/31 06:42:33;;;;;;;3.50;2.33;;;;;;;12.17;100.00;101264.91;4920140;29;20443;-77
2023/08/31 06:44:59;;;;;;;5.30;1.93;;;;;;;10.07;100.00;100936.50;4920957;29;20427;-75
2023/08/31 06:47:24;;;;;;;4.40;2.50;;;;;;;10.87;100.00;101088.19;4929623;29;20195;-75
2023/08/31 06:49:50;;;;;;;6.17;2.70;;;;;;;11.09;100.00;101118.50;4921170;29;20219;-75
2023/08/31 06:52:16;;;;;;;10.33;2.37;;;;;;;9.88;100.00;100901.28;4928872;29;20193;-74
2023/08/31 06:54:41;;;;;;;4.50;2.17;;;;;;;10.45;100.00;100976.44;4919934;29;20448;-74
2023/08/31 06:57:08;;;;;;;8.07;2.13;;;;;;;10.91;100.00;101026.91;4917578;29;20184;-74
2023/08/31 06:59:33;;;;;;;5.53;2.37;;;;;;;11.28;100.00;101100.84;4921096;29;20570;-75
2023/08/31 07:01:58;;;;;;;12.43;2.73;;;;;;;10.98;100.00;101049.25;4920965;29;20454;-75
2023/08/31 07:04:24;;;;;;;3.83;1.90;;;;;;;11.64;100.00;101115.94;4923232;29;20308;-74
2023/08/31 07:06:50;;;;;;;5.07;1.87;;;;;;;10.96;100.00;100989.56;4919889;29;20193;-74
2023/08/31 07:09:15;;;;;;;5.70;2.03;;;;;;;10.94;100.00;101011.25;4921504;29;20279;-75
2023/08/31 07:11:41;;;;;;;4.30;2.07;;;;;;;10.92;100.00;101007.09;4921243;29;20257;-75
2023/08/31 07:14:06;;;;;;;6.23;2.43;;;;;;;10.79;100.00;100989.03;4927594;29;20191;-75
2023/08/31 07:16:31;;;;;;;4.83;2.10;;;;;;;12.99;100.00;101325.09;4921659;29;20196;-75
2023/08/31 07:18:57;;;;;;;5.40;1.97;;;;;;;11.77;100.00;101119.53;4920633;29;20205;-75
2023/08/31 07:21:22;;;;;;;3.93;1.67;;;;;;;12.29;100.00;101160.28;4925022;29;20220;-75
2023/08/31 07:23:48;;;;;;;5.63;2.70;;;;;;;11.03;100.00;100951.00;4929393;29;20223;-74
2023/08/31 07:26:15;;;;;;;5.17;2.40;;;;;;;11.42;100.00;101026.56;4920776;29;20197;-75
2023/08/31 07:28:41;;;;;;;3.53;2.03;;;;;;;11.17;100.00;100930.41;4927948;29;20192;-75
2023/08/31 07:31:07;;;;;;;5.10;2.27;;;;;;;12.57;100.00;101130.56;4920433;29;20981;-75
2023/08/31 07:33:35;;;;;;;4.63;2.00;;;;;;;11.96;100.00;101001.56;4921277;29;20195;-75
2023/08/31 07:36:01;;;;;;;5.47;1.73;;;;;;;11.46;100.00;100956.13;4922683;29;20436;-75
2023/08/31 07:38:27;;;;;;;7.20;2.60;;;;;;;11.38;100.00;100907.97;4918565;29;20562;-75
2023/08/31 07:40:53;;;;;;;5.20;1.60;;;;;;;13.07;100.00;101170.56;4921571;29;20448;-75
2023/08/31 07:43:18;;;;;;;5.70;2.07;;;;;;;12.96;100.00;101153.16;4919367;29;20435;-75
2023/08/31 07:45:44;;;;;;;4.83;2.23;;;;;;;11.81;100.00;100953.34;4928065;29;20464;-75
2023/08/31 07:48:09;;;;;;;6.33;2.00;;;;;;;13.00;100.00;101132.03;4921965;29;20216;-75
2023/08/31 07:50:35;;;;;;;4.53;1.53;;;;;;;13.15;100.00;101156.88;4919118;29;20243;-75
2023/08/31 07:53:00;;;;;;;4.90;1.77;;;;;;;14.23;100.00;101289.47;4920722;29;20193;-75
2023/08/31 07:55:26;;;;;;;2.93;0.90;;;;;;;13.05;100.00;101075.69;4921515;29;20646;-75
2023/08/31 07:57:51;;;;;;;3.60;1.00;;;;;;;13.37;100.00;101113.59;4925807;29;20225;-75
2023/08/31 08:00:18;;;;;;;4.00;1.30;;;;;;;13.14;100.00;101074.44;4924913;29;20224;-76
2023/08/31 08:02:45;;;;;;;4.47;1.30;;;;;;;13.07;100.00;101046.69;4923138;29;20237;-75
2023/08/31 08:05:10;;;;;;;5.17;1.40;;;;;;;14.06;100.00;101196.56;4930748;29;20914;-76
2023/08/31 08:07:36;;;;;;;5.60;1.80;;;;;;;13.21;100.00;101060.94;4926349;29;20515;-75
2023/08/31 08:10:02;;;;;;;5.50;1.70;;;;;;;13.00;100.00;100983.94;4923799;29;20290;-76
2023/08/31 08:12:27;;;;;;;3.73;1.47;;;;;;;12.72;100.00;100941.97;4925289;29;20274;-76
2023/08/31 08:14:53;;;;;;;3.23;1.13;;;;;;;14.31;100.00;101201.22;4925736;29;20439;-75
2023/08/31 08:17:18;;;;;;;4.10;1.20;;;;;;;13.14;100.00;100990.94;4926604;29;20211;-75
2023/08/31 08:19:44;;;;;;;5.57;1.70;;;;;;;13.08;100.00;100971.06;4925955;29;20970;-76
2023/08/31 08:22:09;;;;;;;3.93;1.00;;;;;;;12.74;100.00;100896.00;4924610;29;20551;-75
2023/08/31 08:24:35;;;;;;;3.63;1.10;;;;;;;13.03;100.00;100940.44;4932839;29;20660;-75
2023/08/31 08:27:00;;;;;;;5.30;1.07;;;;;;;13.70;100.00;101002.97;4924618;29;20256;-75
2023/08/31 08:29:26;;;;;;;3.97;1.03;;;;;;;13.17;100.00;100885.50;4924004;29;20185;-75
2023/08/31 08:31:51;;;;;;;3.90;1.00;;;;;;;13.86;100.00;100990.88;4925880;29;20209;-76
2023/08/31 08:34:16;;;;;;;7.23;1.40;;;;;;;13.98;100.00;100927.94;4926027;29;20196;-75
2023/08/31 08:36:42;;;;;;;4.00;1.20;;;;;;;14.15;100.00;100974.06;4923852;29;20180;-75
2023/08/31 08:39:07;;;;;;;3.07;1.00;;;;;;;14.30;100.00;100949.47;4924245;29;20226;-75
2023/08/31 08:41:35;;;;;;;3.17;0.80;;;;;;;13.28;100.00;100758.25;4926208;29;20268;-75
2023/08/31 08:44:05;;;;;;;2.97;0.80;;;;;;;15.22;100.00;101057.66;4923454;29;20184;-75
2023/08/31 08:46:32;;;;;;;3.90;0.80;;;;;;;13.50;100.00;100733.59;4923476;29;20433;-75
2023/08/31 08:48:59;;;;;;;4.13;1.10;;;;;;;15.48;100.00;101080.03;4924533;29;20473;-75
2023/08/31 08:51:27;;;;;;;3.17;0.83;;;;;;;14.35;100.00;100905.59;4938772;28;20456;-75
2023/08/31 08:53:54;;;;;;;5.23;1.00;;;;;;;15.49;100.00;101087.91;4922245;29;20431;-75
2023/08/31 08:56:19;;;;;;;3.93;0.80;;;;;;;14.29;100.00;100883.06;4924657;29;20428;-75
2023/08/31 08:58:45;;;;;;;5.10;0.90;;;;;;;14.77;100.00;100951.75;4926854;29;21332;-75
2023/08/31 09:01:11;;;;;;;2.73;0.90;;;;;;;13.06;100.00;100633.88;4923712;29;20223;-75
2023/08/31 09:03:36;;;;;;;5.07;1.20;;;;;;;14.36;100.00;100829.03;4930472;29;20208;-75
2023/08/31 09:06:04;;;;;;;3.27;0.90;;;;;;;14.97;100.00;100938.84;4926166;29;20881;-75
2023/08/31 09:08:29;;;;;;;2.33;0.70;;;;;;;13.84;100.00;100734.13;4921910;29;20259;-74
2023/08/31 09:10:59;;;;;;;5.47;1.03;;;;;;;15.04;100.00;100917.16;4925377;29;20993;-75
2023/08/31 09:13:29;;;;;;;2.60;0.70;;;;;;;14.81;100.00;100926.78;4930756;29;20569;-75
2023/08/31 09:15:56;;;;;;;2.87;0.80;;;;;;;13.41;100.00;100689.94;4921526;29;20902;-75
2023/08/31 09:18:27;;;;;;;2.07;0.67;;;;;;;14.53;100.00;100873.28;4924581;29;20479;-74
2023/08/31 09:20:56;;;;;;;2.53;0.70;;;;;;;13.49;100.00;100670.00;4922376;29;20778;-75
2023/08/31 09:23:22;;;;;;;4.63;0.67;;;;;;;14.68;100.00;100849.44;4922916;29;20520;-74
2023/08/31 09:25:49;;;;;;;2.70;0.87;;;;;;;15.37;100.00;100895.13;4931119;29;20437;-74
2023/08/31 09:28:19;;;;;;;6.03;0.80;;;;;;;16.12;100.00;100967.69;4924355;29;20227;-74
2023/08/31 09:30:49;;;;;;;4.50;0.70;;;;;;;14.87;100.00;100798.16;4930236;29;20459;-75
2023/08/31 09:33:16;;;;;;;3.10;0.80;;;;;;;15.25;100.00;100816.72;4920079;29;20486;-74
2023/08/31 09:35:50;;;;;;;1.80;0.60;;;;;;;15.40;100.00;100791.16;4929661;29;20445;-74
2023/08/31 09:38:16;;;;;;;2.60;0.80;;;;;;;15.21;100.00;100726.34;4932024;29;21528;-74
2023/08/31 09:40:42;;;;;;;3.10;0.90;;;;;;;14.62;100.00;100569.63;4921512;29;20484;-74
2023/08/31 09:43:07;;;;;;;3.00;0.80;;;;;;;14.34;100.00;100561.31;4919305;29;20192;-74
2023/08/31 09:45:35;;;;;;;2.50;0.70;;;;;;;14.42;100.00;100515.94;4923335;29;20280;-74
2023/08/31 09:48:02;;;;;;;2.70;0.73;;;;;;;16.56;100.00;100816.56;4924436;29;20227;-74
2023/08/31 09:50:33;;;;;;;4.80;0.83;;;;;;;15.71;100.00;100690.81;4920384;29;20533;-74
2023/08/31 09:53:05;;;;;;;3.70;0.80;;;;;;;16.51;100.00;100832.69;4922526;29;21028;-74
2023/08/31 09:55:32;;;;;;;3.90;0.77;;;;;;;16.94;100.00;100840.38;4919965;29;20921;-75
2023/08/31 09:58:00;;;;;;;2.27;0.80;;;;;;;16.96;100.00;100815.78;4928696;29;20559;-74
2023/08/31 10:00:34;;;;;;;3.70;0.80;;;;;;;16.53;100.00;100689.78;4923709;29;20546;-73
2023/08/31 10:03:03;;;;;;;2.77;0.80;;;;;;;17.28;100.00;100794.41;4918797;29;20847;-75
2023/08/31 10:05:28;;;;;;;2.70;0.77;;;;;;;16.96;100.00;100777.03;4923618;29;20439;-74
2023/08/31 10:07:55;;;;;;;4.80;0.70;;;;;;;16.86;100.00;100810.97;4920761;29;20424;-74
2023/08/31 10:10:24;;;;;;;2.37;0.80;;;;;;;16.30;100.00;100872.03;4922769;29;20215;-74
2023/08/31 10:12:51;;;;;;;2.47;0.80;;;;;;;16.04;100.00;100911.19;4922829;29;20431;-73
2023/08/31 10:15:17;;;;;;;3.13;0.80;;;;;;;15.77;100.00;100897.28;4920841;29;20495;-74
2023/08/31 10:17:44;;;;;;;2.83;0.87;;;;;;;15.92;100.00;100942.81;4923890;29;20835;-74
2023/08/31 10:20:11;;;;;;;3.20;0.83;;;;;;;15.26;100.00;100849.97;4920649;29;20807;-76
2023/08/31 10:22:37;;;;;;;2.27;0.70;;;;;;;16.08;100.00;100973.78;4925505;29;20418;-74
2023/08/31 10:25:07;;;;;;;2.00;0.73;;;;;;;15.92;100.00;100911.19;4924976;29;20515;-75
2023/08/31 10:27:38;;;;;;;2.63;0.60;;;;;;;16.61;100.00;101008.94;4923933;29;20433;-75
2023/08/31 10:30:15;;;;;;;1.87;0.70;;;;;;;16.66;100.00;101005.50;4923321;29;20448;-76
2023/08/31 10:32:40;;;;;;;2.40;0.70;;;;;;;16.50;100.00;101013.28;4923343;29;20525;-75
2023/08/31 10:35:09;;;;;;;2.77;0.80;;;;;;;15.42;100.00;100872.81;4927591;29;20492;-75
2023/08/31 10:37:34;;;;;;;2.63;0.87;;;;;;;15.64;100.00;100984.78;4938366;28;20689;-75
2023/08/31 10:40:18;;;;;;;3.67;0.93;;;;;;;15.81;100.00;101114.81;4923430;29;20488;-72
2023/08/31 10:42:47;;;;;;;4.53;1.00;;;;;;;14.27;100.00;101119.06;4918136;29;20193;-69
2023/08/31 10:45:20;;;;;;;3.93;1.00;;;;;;;13.68;100.00;101151.47;4917779;29;20495;-69
2023/08/31 10:47:47;;;;;;;4.53;1.40;;;;;;;13.08;100.00;101161.47;4917994;29;20443;-69
2023/08/31 10:50:20;;;;;;;4.40;1.00;;;;;;;13.08;100.00;101169.53;4917719;29;20475;-71
2023/08/31 10:52:45;;;;;;;3.47;1.10;;;;;;;12.86;100.00;101185.03;4919241;29;20491;-70
2023/08/31 10:55:11;;;;;;;3.67;1.00;;;;;;;13.05;100.00;101161.88;4918074;29;20432;-71
2023/08/31 10:57:36;;;;;;;3.40;1.33;;;;;;;13.65;100.00;101192.28;4920367;29;20204;-71
2023/08/31 11:00:03;;;;;;;3.33;1.20;;;;;;;14.11;100.00;101207.50;4917441;29;20219;-72
2023/08/31 11:02:41;;;;;;;5.20;1.50;;;;;;;13.84;100.00;101200.56;4928851;29;20197;-72
2023/08/31 11:05:08;;;;;;;4.70;1.90;;;;;;;14.46;100.00;101223.34;4922093;29;20435;-72
2023/08/31 11:07:35;;;;;;;5.03;1.20;;;;;;;14.77;100.00;101227.16;4937279;28;20472;-72
2023/08/31 11:10:11;;;;;;;4.33;1.10;;;;;;;15.03;100.00;101218.88;4920188;29;20447;-73
2023/08/31 11:12:37;;;;;;;3.73;0.90;;;;;;;14.80;100.00;101124.94;4916490;29;20435;-72
2023/08/31 11:15:03;;;;;;;3.23;1.00;;;;;;;14.83;100.00;101121.78;4922274;29;20423;-72
2023/08/31 11:17:32;;;;;;;9.63;1.27;;;;;;;14.60;100.00;101133.19;4917510;29;20472;-72